createdAt,value
2023-05-10T00:00:29.737Z,9.00
2023-05-10T00:03:10.183Z,8.90
2023-05-10T00:05:37.519Z,8.90
2023-05-10T00:08:04.660Z,8.90
2023-05-10T00:10:32.005Z,8.80
2023-05-10T00:12:59.261Z,8.90
2023-05-10T00:15:26.944Z,8.90
2023-05-10T00:17:54.107Z,8.80
2023-05-10T00:20:21.429Z,8.80
2023-05-10T00:22:48.504Z,8.90
2023-05-10T00:25:15.870Z,8.80
2023-05-10T00:27:42.864Z,8.80
2023-05-10T00:30:10.454Z,8.80
2023-05-10T00:32:37.651Z,8.80
2023-05-10T00:35:05.859Z,8.80
2023-05-10T00:37:33.403Z,8.80
2023-05-10T00:40:00.702Z,8.70
2023-05-10T00:42:29.981Z,8.70
2023-05-10T00:44:58.567Z,8.70
2023-05-10T00:47:25.884Z,8.60
2023-05-10T00:49:53.395Z,8.60
2023-05-10T00:52:20.846Z,8.60
2023-05-10T00:54:48.680Z,8.50
2023-05-10T00:57:15.922Z,8.50
2023-05-10T00:59:43.968Z,8.50
2023-05-10T01:02:11.386Z,8.50
2023-05-10T01:04:39.548Z,8.30
2023-05-10T01:07:06.778Z,8.30
2023-05-10T01:09:34.670Z,8.30
2023-05-10T01:12:02.887Z,8.20
2023-05-10T01:14:31.740Z,8.20
2023-05-10T01:16:58.747Z,8.20
2023-05-10T01:19:31.066Z,8.30
2023-05-10T01:22:06.953Z,8.20
2023-05-10T01:25:11.884Z,8.10
2023-05-10T01:28:14.021Z,8.10
2023-05-10T01:31:18.877Z,8.10
2023-05-10T01:34:15.089Z,8.10
2023-05-10T01:37:10.153Z,8.10
2023-05-10T01:40:09.500Z,8.00
2023-05-10T01:42:56.593Z,8.00
2023-05-10T01:46:01.888Z,8.00
2023-05-10T01:48:29.748Z,8.00
2023-05-10T01:50:58.304Z,7.90
2023-05-10T01:53:26.832Z,8.00
2023-05-10T01:55:56.206Z,7.90
2023-05-10T01:58:31.656Z,7.90
2023-05-10T02:01:01.702Z,7.90
2023-05-10T02:03:32.104Z,7.80
2023-05-10T02:06:00.133Z,7.80
2023-05-10T02:08:28.319Z,7.80
2023-05-10T02:10:59.579Z,7.80
2023-05-10T02:13:28.335Z,7.80
2023-05-10T02:15:56.683Z,7.70
2023-05-10T02:18:26.677Z,7.70
2023-05-10T02:20:56.027Z,7.70
2023-05-10T02:23:25.377Z,7.70
2023-05-10T02:25:53.222Z,7.70
2023-05-10T02:28:24.489Z,7.70
2023-05-10T02:30:52.932Z,7.70
2023-05-10T02:33:21.842Z,7.60
2023-05-10T02:35:51.241Z,7.60
2023-05-10T02:38:21.187Z,7.60
2023-05-10T02:40:49.263Z,7.50
2023-05-10T02:43:19.378Z,7.50
2023-05-10T02:45:48.879Z,7.50
2023-05-10T02:48:17.694Z,7.50
2023-05-10T02:50:47.384Z,7.60
2023-05-10T02:53:23.218Z,7.60
2023-05-10T02:55:53.766Z,7.60
2023-05-10T02:58:21.876Z,7.60
2023-05-10T03:00:49.066Z,7.60
2023-05-10T03:03:16.538Z,7.70
2023-05-10T03:05:43.601Z,7.70
2023-05-10T03:08:11.136Z,7.70
2023-05-10T03:10:45.575Z,7.70
2023-05-10T03:13:36.425Z,7.70
2023-05-10T03:16:44.173Z,7.80
2023-05-10T03:19:15.429Z,7.80
2023-05-10T03:21:48.445Z,7.80
2023-05-10T03:24:17.449Z,7.90
2023-05-10T03:26:46.790Z,8.00
2023-05-10T03:29:18.624Z,8.00
2023-05-10T03:31:46.579Z,8.10
2023-05-10T03:34:15.155Z,8.20
2023-05-10T03:36:42.499Z,8.30
2023-05-10T03:39:11.509Z,8.30
2023-05-10T03:41:38.943Z,8.50
2023-05-10T03:44:06.329Z,8.70
2023-05-10T03:46:33.389Z,9.10
2023-05-10T03:49:01.065Z,9.60
2023-05-10T03:51:29.140Z,10.70
2023-05-10T03:53:56.687Z,11.70
2023-05-10T03:56:24.227Z,13.20
2023-05-10T03:58:51.581Z,14.60
2023-05-10T04:01:18.811Z,15.80
2023-05-10T04:03:47.662Z,16.70
2023-05-10T04:06:15.060Z,17.10
2023-05-10T04:08:42.466Z,18.10
2023-05-10T04:11:13.166Z,18.80
2023-05-10T04:13:40.539Z,19.70
2023-05-10T04:16:07.708Z,20.20
2023-05-10T04:18:35.672Z,20.50
2023-05-10T04:21:02.709Z,21.60
2023-05-10T04:23:30.002Z,21.20
2023-05-10T04:26:01.549Z,21.00
2023-05-10T04:28:31.502Z,21.90
2023-05-10T04:31:10.954Z,22.10
2023-05-10T04:33:38.464Z,22.40
2023-05-10T04:36:06.085Z,22.80
2023-05-10T04:38:33.409Z,24.00
2023-05-10T04:41:11.469Z,24.40
2023-05-10T04:43:39.477Z,24.70
2023-05-10T04:46:07.027Z,24.30
2023-05-10T04:48:34.680Z,25.40
2023-05-10T04:51:01.884Z,25.50
2023-05-10T04:53:29.585Z,26.40
2023-05-10T04:55:56.677Z,27.20
2023-05-10T04:58:24.051Z,27.20
2023-05-10T05:00:51.060Z,27.80
2023-05-10T05:03:18.490Z,27.40
2023-05-10T05:05:45.966Z,26.50
2023-05-10T05:08:15.909Z,27.80
2023-05-10T05:10:42.956Z,29.30
2023-05-10T05:13:10.334Z,29.30
2023-05-10T05:15:37.342Z,27.60
2023-05-10T05:18:04.833Z,27.20
2023-05-10T05:20:34.965Z,28.00
2023-05-10T05:23:03.040Z,28.50
2023-05-10T05:25:31.147Z,30.40
2023-05-10T05:27:59.493Z,29.80
2023-05-10T05:30:27.404Z,30.30
2023-05-10T05:32:55.560Z,31.00
2023-05-10T05:35:23.248Z,31.70
2023-05-10T05:37:51.271Z,31.50
2023-05-10T05:40:18.804Z,31.60
2023-05-10T05:42:46.947Z,31.30
2023-05-10T05:45:14.923Z,30.70
2023-05-10T05:47:43.356Z,30.30
2023-05-10T05:50:11.065Z,30.00
2023-05-10T05:52:38.350Z,30.50
2023-05-10T05:55:05.815Z,30.60
2023-05-10T05:57:33.147Z,31.20
2023-05-10T06:00:01.208Z,31.90
2023-05-10T06:02:28.661Z,32.40
2023-05-10T06:04:55.690Z,30.40
2023-05-10T06:07:23.158Z,29.70
2023-05-10T06:09:50.123Z,30.00
2023-05-10T06:12:17.716Z,31.40
2023-05-10T06:14:44.722Z,30.70
2023-05-10T06:17:14.148Z,31.00
2023-05-10T06:19:41.164Z,31.20
2023-05-10T06:22:08.422Z,32.20
2023-05-10T06:24:35.527Z,31.60
2023-05-10T06:27:02.945Z,30.90
2023-05-10T06:29:30.120Z,31.70
2023-05-10T06:31:57.765Z,31.90
2023-05-10T06:34:25.018Z,32.30
2023-05-10T06:36:52.686Z,32.50
2023-05-10T06:39:19.682Z,33.00
2023-05-10T06:41:49.185Z,34.60
2023-05-10T06:44:16.552Z,34.20
2023-05-10T06:46:44.321Z,32.40
2023-05-10T06:49:11.414Z,31.80
2023-05-10T06:51:38.787Z,31.50
2023-05-10T06:54:05.782Z,30.00
2023-05-10T06:56:34.090Z,29.90
2023-05-10T06:59:01.181Z,31.10
2023-05-10T07:01:36.882Z,30.70
2023-05-10T07:04:10.686Z,30.50
2023-05-10T07:06:39.602Z,30.90
2023-05-10T07:09:06.884Z,28.00
2023-05-10T07:11:38.521Z,26.50
2023-05-10T07:14:06.124Z,25.60
2023-05-10T07:16:33.468Z,25.80
2023-05-10T07:19:00.474Z,25.30
2023-05-10T07:21:29.738Z,24.50
2023-05-10T07:23:57.113Z,22.50
2023-05-10T07:26:25.041Z,22.10
2023-05-10T07:28:52.102Z,21.30
2023-05-10T07:31:19.497Z,20.30
2023-05-10T07:33:47.234Z,19.90
2023-05-10T07:36:14.547Z,19.50
2023-05-10T07:38:41.731Z,19.20
2023-05-10T07:41:09.122Z,18.90
2023-05-10T07:43:36.152Z,18.80
2023-05-10T07:46:03.725Z,18.70
2023-05-10T07:48:30.805Z,19.00
2023-05-10T07:50:58.375Z,18.70
2023-05-10T07:53:27.461Z,18.20
2023-05-10T07:55:59.356Z,18.00
2023-05-10T07:58:26.672Z,18.10
2023-05-10T08:00:57.484Z,18.20
2023-05-10T08:03:25.901Z,18.10
2023-05-10T08:05:53.283Z,18.20
2023-05-10T08:08:21.015Z,18.30
2023-05-10T08:10:48.458Z,17.60
2023-05-10T08:13:15.478Z,17.50
2023-05-10T08:15:42.828Z,17.60
2023-05-10T08:18:10.075Z,17.80
2023-05-10T08:20:37.731Z,18.00
2023-05-10T08:23:04.865Z,17.80
2023-05-10T08:25:33.335Z,17.70
2023-05-10T08:28:00.648Z,17.60
2023-05-10T08:30:27.956Z,17.50
2023-05-10T08:32:55.039Z,17.60
2023-05-10T08:35:22.398Z,17.50
2023-05-10T08:37:52.440Z,17.30
2023-05-10T08:40:22.115Z,17.40
2023-05-10T08:43:00.326Z,17.60
2023-05-10T08:45:33.292Z,17.40
2023-05-10T08:48:02.910Z,17.20
2023-05-10T08:50:31.363Z,17.10
2023-05-10T08:53:02.083Z,17.00
2023-05-10T08:55:31.628Z,16.90
2023-05-10T08:57:58.832Z,17.00
2023-05-10T09:00:27.134Z,16.80
2023-05-10T09:02:55.159Z,17.00
2023-05-10T09:05:22.716Z,17.10
2023-05-10T09:07:49.979Z,17.10
2023-05-10T09:10:17.796Z,17.20
2023-05-10T09:12:46.371Z,17.30
2023-05-10T09:15:17.052Z,17.50
2023-05-10T09:17:45.519Z,17.60
2023-05-10T09:20:13.128Z,17.50
2023-05-10T09:22:40.294Z,17.50
2023-05-10T09:25:10.000Z,17.40
2023-05-10T09:27:37.906Z,17.50
2023-05-10T09:30:09.008Z,17.40
2023-05-10T09:32:44.854Z,17.30
2023-05-10T09:35:18.049Z,17.40
2023-05-10T09:37:48.686Z,17.50
2023-05-10T09:40:21.268Z,17.60
2023-05-10T09:42:58.418Z,17.40
2023-05-10T09:45:27.553Z,17.20
2023-05-10T09:47:54.908Z,17.10
2023-05-10T09:50:23.132Z,17.00
2023-05-10T09:52:59.496Z,17.20
2023-05-10T09:55:41.915Z,17.40
2023-05-10T09:58:11.954Z,17.40
2023-05-10T10:00:44.433Z,17.50
2023-05-10T10:03:19.433Z,17.50
2023-05-10T10:05:49.793Z,17.40
2023-05-10T10:08:18.265Z,17.40
2023-05-10T10:10:47.528Z,17.30
2023-05-10T10:13:15.122Z,17.40
2023-05-10T10:15:43.926Z,17.30
2023-05-10T10:18:16.231Z,17.40
2023-05-10T10:20:43.959Z,17.60
2023-05-10T10:23:13.806Z,17.70
2023-05-10T10:25:42.916Z,17.80
2023-05-10T10:28:33.415Z,17.90
2023-05-10T10:31:14.395Z,17.80
2023-05-10T10:33:52.276Z,17.60
2023-05-10T10:36:21.683Z,17.50
2023-05-10T10:38:48.645Z,17.40
2023-05-10T10:41:43.954Z,17.50
2023-05-10T10:44:34.608Z,17.50
2023-05-10T10:47:19.728Z,17.50
2023-05-10T10:50:09.338Z,17.50
2023-05-10T10:52:41.677Z,17.50
2023-05-10T10:55:16.211Z,17.40
2023-05-10T10:57:52.805Z,17.40
2023-05-10T11:00:31.903Z,17.40
2023-05-10T11:03:19.961Z,17.50
2023-05-10T11:05:50.305Z,17.40
2023-05-10T11:08:20.360Z,17.50
2023-05-10T11:11:15.379Z,17.70
2023-05-10T11:13:51.154Z,17.70
2023-05-10T11:16:26.580Z,17.80
2023-05-10T11:18:54.364Z,17.90
2023-05-10T11:21:21.603Z,17.90
2023-05-10T11:23:52.198Z,17.70
2023-05-10T11:26:19.860Z,17.60
2023-05-10T11:28:48.951Z,17.60
2023-05-10T11:31:17.796Z,17.40
2023-05-10T11:33:55.686Z,17.40
2023-05-10T11:36:29.771Z,17.40
2023-05-10T11:38:57.863Z,17.50
2023-05-10T11:41:26.435Z,17.60
2023-05-10T11:43:55.041Z,17.70
2023-05-10T11:46:26.275Z,17.60
2023-05-10T11:48:58.292Z,17.70
2023-05-10T11:51:26.203Z,17.80
2023-05-10T11:53:57.927Z,17.90
2023-05-10T11:56:27.076Z,18.00
2023-05-10T11:58:58.872Z,17.90
2023-05-10T12:01:28.742Z,17.80
2023-05-10T12:04:01.552Z,17.80
2023-05-10T12:06:32.819Z,17.60
2023-05-10T12:09:00.609Z,17.60
2023-05-10T12:11:29.655Z,17.70
2023-05-10T12:13:57.829Z,17.80
2023-05-10T12:16:27.105Z,17.70
2023-05-10T12:18:59.441Z,17.70
2023-05-10T12:21:28.545Z,17.70
2023-05-10T12:24:05.999Z,17.70
2023-05-10T12:26:33.489Z,17.80
2023-05-10T12:29:14.162Z,17.70
2023-05-10T12:31:51.121Z,17.70
2023-05-10T12:34:31.272Z,17.70
2023-05-10T12:36:58.493Z,17.80
2023-05-10T12:39:26.011Z,17.90
2023-05-10T12:41:53.592Z,18.00
2023-05-10T12:44:20.986Z,17.90
2023-05-10T12:46:48.715Z,17.80
2023-05-10T12:49:16.027Z,17.90
2023-05-10T12:51:43.026Z,17.90
2023-05-10T12:54:10.750Z,17.90
2023-05-10T12:56:38.120Z,17.80
2023-05-10T12:59:06.683Z,17.70
2023-05-10T13:01:33.787Z,17.80
2023-05-10T13:04:01.249Z,17.90
2023-05-10T13:06:32.983Z,17.80
2023-05-10T13:09:00.946Z,17.90
2023-05-10T13:11:27.952Z,17.90
2023-05-10T13:13:55.265Z,18.00
2023-05-10T13:16:22.339Z,18.00
2023-05-10T13:18:49.671Z,18.00
2023-05-10T13:21:17.610Z,18.10
2023-05-10T13:23:45.019Z,18.10
2023-05-10T13:26:12.103Z,18.10
2023-05-10T13:28:41.689Z,18.00
2023-05-10T13:31:10.441Z,18.00
2023-05-10T13:33:37.887Z,17.80
2023-05-10T13:36:08.348Z,17.80
2023-05-10T13:38:35.730Z,17.80
2023-05-10T13:41:02.793Z,17.80
2023-05-10T13:43:30.936Z,17.90
2023-05-10T13:45:58.045Z,17.80
2023-05-10T13:48:26.433Z,17.90
2023-05-10T13:50:55.025Z,17.90
2023-05-10T13:53:23.649Z,17.80
2023-05-10T13:56:41.661Z,17.90
2023-05-10T13:59:09.454Z,17.70
2023-05-10T14:01:37.646Z,17.70
2023-05-10T14:04:05.510Z,17.70
2023-05-10T14:06:35.182Z,17.80
2023-05-10T14:09:03.480Z,17.70
2023-05-10T14:11:31.424Z,17.70
2023-05-10T14:14:01.635Z,17.70
2023-05-10T14:16:29.852Z,17.70
2023-05-10T14:18:57.403Z,17.70
2023-05-10T14:21:24.715Z,17.70
2023-05-10T14:23:52.072Z,17.60
2023-05-10T14:26:19.232Z,17.80
2023-05-10T14:28:47.627Z,17.60
2023-05-10T14:31:17.974Z,17.60
2023-05-10T14:33:45.538Z,17.70
2023-05-10T14:36:12.895Z,17.80
2023-05-10T14:38:41.227Z,17.60
2023-05-10T14:41:11.822Z,17.60
2023-05-10T14:43:39.317Z,17.60
2023-05-10T14:46:06.617Z,17.60
2023-05-10T14:48:37.138Z,17.60
2023-05-10T14:51:04.639Z,17.60
2023-05-10T14:53:38.615Z,17.60
2023-05-10T14:56:06.253Z,17.60
2023-05-10T14:58:34.477Z,17.60
2023-05-10T15:01:02.331Z,17.60
2023-05-10T15:03:31.541Z,17.50
2023-05-10T15:05:59.528Z,17.50
2023-05-10T15:08:27.432Z,17.50
2023-05-10T15:10:57.179Z,17.50
2023-05-10T15:13:26.717Z,17.50
2023-05-10T15:15:56.848Z,17.50
2023-05-10T15:18:27.063Z,17.50
2023-05-10T15:20:54.104Z,17.50
2023-05-10T15:23:21.399Z,17.40
2023-05-10T15:25:50.510Z,17.40
2023-05-10T15:28:19.394Z,17.40
2023-05-10T15:30:49.887Z,17.40
2023-05-10T15:33:17.189Z,17.40
2023-05-10T15:35:46.246Z,17.40
2023-05-10T15:38:13.556Z,17.40
2023-05-10T15:40:44.376Z,17.30
2023-05-10T15:43:12.179Z,17.30
2023-05-10T15:45:39.445Z,17.30
2023-05-10T15:48:08.470Z,17.20
2023-05-10T15:50:35.539Z,17.20
2023-05-10T15:53:02.967Z,17.20
2023-05-10T15:55:29.991Z,17.20
2023-05-10T15:57:57.290Z,17.20
2023-05-10T16:00:25.660Z,17.20
2023-05-10T16:02:54.182Z,17.20
2023-05-10T16:05:21.613Z,17.10
2023-05-10T16:07:49.406Z,17.10
2023-05-10T16:10:16.693Z,17.10
2023-05-10T16:12:44.052Z,17.10
2023-05-10T16:15:11.270Z,17.10
2023-05-10T16:17:38.645Z,17.00
2023-05-10T16:20:09.089Z,17.00
2023-05-10T16:22:36.540Z,17.00
2023-05-10T16:25:06.635Z,16.90
2023-05-10T16:27:35.141Z,17.00
2023-05-10T16:30:03.037Z,17.00
2023-05-10T16:32:30.477Z,16.90
2023-05-10T16:34:58.060Z,16.90
2023-05-10T16:37:25.585Z,16.80
2023-05-10T16:39:52.754Z,16.80
2023-05-10T16:42:20.193Z,16.80
2023-05-10T16:44:47.655Z,16.70
2023-05-10T16:47:15.007Z,16.70
2023-05-10T16:49:42.231Z,16.70
2023-05-10T16:52:10.345Z,16.60
2023-05-10T16:54:37.410Z,16.60
2023-05-10T16:57:04.867Z,16.50
2023-05-10T16:59:31.905Z,16.40
2023-05-10T17:01:59.192Z,16.50
2023-05-10T17:04:26.370Z,16.40
2023-05-10T17:06:56.782Z,16.50
2023-05-10T17:09:24.003Z,16.40
2023-05-10T17:11:51.793Z,16.50
2023-05-10T17:14:18.764Z,16.40
2023-05-10T17:16:47.966Z,16.30
2023-05-10T17:19:17.485Z,16.30
2023-05-10T17:21:44.963Z,16.30
2023-05-10T17:24:11.946Z,16.20
2023-05-10T17:26:41.243Z,16.10
2023-05-10T17:29:08.598Z,16.10
2023-05-10T17:31:36.002Z,16.00
2023-05-10T17:34:05.487Z,16.00
2023-05-10T17:36:33.690Z,16.00
2023-05-10T17:39:01.126Z,16.00
2023-05-10T17:41:28.952Z,15.90
2023-05-10T17:43:56.029Z,15.80
2023-05-10T17:46:23.713Z,15.70
2023-05-10T17:48:50.937Z,15.60
2023-05-10T17:51:20.311Z,15.60
2023-05-10T17:53:47.397Z,15.50
2023-05-10T17:56:14.978Z,15.50
2023-05-10T17:58:42.109Z,15.40
2023-05-10T18:01:09.501Z,15.30
2023-05-10T18:03:36.714Z,15.30
2023-05-10T18:06:04.679Z,15.10
2023-05-10T18:08:35.061Z,15.10
2023-05-10T18:11:02.449Z,14.90
2023-05-10T18:13:29.687Z,14.80
2023-05-10T18:15:57.396Z,14.70
2023-05-10T18:18:27.725Z,14.60
2023-05-10T18:20:58.358Z,14.50
2023-05-10T18:23:25.654Z,14.50
2023-05-10T18:25:53.181Z,14.40
2023-05-10T18:28:20.163Z,14.30
2023-05-10T18:30:47.506Z,14.30
2023-05-10T18:33:17.598Z,14.20
2023-05-10T18:35:45.204Z,14.10
2023-05-10T18:38:13.763Z,14.00
2023-05-10T18:40:41.823Z,13.90
2023-05-10T18:43:09.478Z,13.90
2023-05-10T18:45:36.955Z,13.90
2023-05-10T18:48:04.116Z,13.80
2023-05-10T18:50:31.602Z,13.70
2023-05-10T18:52:58.704Z,13.60
2023-05-10T18:55:26.066Z,13.60
2023-05-10T18:57:53.209Z,13.50
2023-05-10T19:00:20.828Z,13.50
2023-05-10T19:02:48.037Z,13.40
2023-05-10T19:05:16.892Z,13.30
2023-05-10T19:07:45.474Z,13.30
2023-05-10T19:10:17.566Z,13.30
2023-05-10T19:12:44.607Z,13.20
2023-05-10T19:15:13.355Z,13.20
2023-05-10T19:17:41.241Z,13.10
2023-05-10T19:20:10.941Z,13.00
2023-05-10T19:22:54.158Z,13.00
2023-05-10T19:25:29.566Z,13.00
2023-05-10T19:27:59.805Z,12.90
2023-05-10T19:30:30.513Z,12.90
2023-05-10T19:32:58.795Z,12.90
2023-05-10T19:35:26.307Z,12.80
2023-05-10T19:37:56.478Z,12.80
2023-05-10T19:40:24.260Z,12.70
2023-05-10T19:42:51.400Z,12.70
2023-05-10T19:45:19.148Z,12.60
2023-05-10T19:47:46.706Z,12.60
2023-05-10T19:50:16.273Z,12.50
2023-05-10T19:52:43.434Z,12.50
2023-05-10T19:55:15.638Z,12.50
2023-05-10T19:57:42.957Z,12.40
2023-05-10T20:00:11.592Z,12.40
2023-05-10T20:02:38.932Z,12.40
2023-05-10T20:05:08.215Z,12.40
2023-05-10T20:07:37.011Z,12.30
2023-05-10T20:10:08.193Z,12.30
2023-05-10T20:12:37.395Z,12.30
2023-05-10T20:15:06.922Z,12.30
2023-05-10T20:17:39.146Z,12.20
2023-05-10T20:20:07.458Z,12.20
2023-05-10T20:22:37.814Z,12.20
2023-05-10T20:25:06.105Z,12.10
2023-05-10T20:27:33.318Z,12.10
2023-05-10T20:30:01.026Z,12.10
2023-05-10T20:32:28.337Z,12.10
2023-05-10T20:34:55.956Z,12.10
2023-05-10T20:37:23.935Z,12.00
2023-05-10T20:39:51.265Z,11.90
2023-05-10T20:42:18.445Z,11.90
2023-05-10T20:44:46.344Z,11.90
2023-05-10T20:47:17.167Z,11.80
2023-05-10T20:49:44.530Z,11.80
2023-05-10T20:52:12.246Z,11.70
2023-05-10T20:54:39.794Z,11.60
2023-05-10T20:57:07.383Z,11.60
2023-05-10T20:59:35.280Z,11.60
2023-05-10T21:02:02.661Z,11.60
2023-05-10T21:04:30.101Z,11.50
2023-05-10T21:06:57.337Z,11.50
2023-05-10T21:09:24.650Z,11.50
2023-05-10T21:11:51.965Z,11.50
2023-05-10T21:14:20.562Z,11.40
2023-05-10T21:16:47.718Z,11.40
2023-05-10T21:19:15.126Z,11.40
2023-05-10T21:21:42.260Z,11.40
2023-05-10T21:24:11.390Z,11.30
2023-05-10T21:26:38.601Z,11.30
2023-05-10T21:29:06.640Z,11.30
2023-05-10T21:31:33.935Z,11.20
2023-05-10T21:34:01.299Z,11.20
2023-05-10T21:36:28.367Z,11.10
2023-05-10T21:38:55.643Z,11.10
2023-05-10T21:41:22.647Z,11.10
2023-05-10T21:43:50.013Z,11.10
2023-05-10T21:46:17.238Z,11.10
2023-05-10T21:48:45.124Z,11.10
2023-05-10T21:51:12.588Z,11.00
2023-05-10T21:53:40.763Z,11.00
2023-05-10T21:56:12.196Z,10.90
2023-05-10T21:58:40.473Z,10.90
2023-05-10T22:01:07.645Z,10.90
2023-05-10T22:03:35.062Z,10.80
2023-05-10T22:06:02.358Z,10.80
2023-05-10T22:08:29.871Z,10.80
2023-05-10T22:10:57.068Z,10.80
2023-05-10T22:13:25.722Z,10.70
2023-05-10T22:15:52.808Z,10.70
2023-05-10T22:18:20.244Z,10.70
2023-05-10T22:20:48.041Z,10.70
2023-05-10T22:23:15.401Z,10.60
2023-05-10T22:25:42.395Z,10.60
2023-05-10T22:28:10.144Z,10.50
2023-05-10T22:30:37.599Z,10.60
2023-05-10T22:33:04.943Z,10.50
2023-05-10T22:35:32.145Z,10.50
2023-05-10T22:37:59.435Z,10.50
2023-05-10T22:40:26.966Z,10.50
2023-05-10T22:42:56.093Z,10.50
2023-05-10T22:45:23.189Z,10.50
2023-05-10T22:47:50.525Z,10.50
2023-05-10T22:50:18.488Z,10.50
2023-05-10T22:52:46.029Z,10.50
2023-05-10T22:55:13.182Z,10.50
2023-05-10T22:57:40.655Z,10.50
2023-05-10T23:00:10.763Z,10.50
2023-05-10T23:02:38.176Z,10.50
2023-05-10T23:05:05.811Z,10.50
2023-05-10T23:07:34.133Z,10.40
2023-05-10T23:10:01.189Z,10.50
2023-05-10T23:12:29.010Z,10.40
2023-05-10T23:14:56.545Z,10.40
2023-05-10T23:17:23.980Z,10.40
2023-05-10T23:19:51.091Z,10.40
2023-05-10T23:22:18.490Z,10.40
2023-05-10T23:24:45.426Z,10.40
2023-05-10T23:27:12.698Z,10.30
2023-05-10T23:29:39.795Z,10.30
2023-05-10T23:32:07.080Z,10.30
2023-05-10T23:34:34.054Z,10.20
2023-05-10T23:37:01.315Z,10.20
2023-05-10T23:39:28.380Z,10.10
2023-05-10T23:41:55.620Z,10.10
2023-05-10T23:44:22.615Z,10.10
2023-05-10T23:46:50.105Z,10.20
2023-05-10T23:49:17.439Z,10.20
2023-05-10T23:51:44.819Z,10.10
2023-05-10T23:54:12.259Z,10.10
2023-05-10T23:56:39.655Z,10.10
2023-05-10T23:59:06.774Z,10.10
